Terminal Aerodrome Forecast
Issued by NWS

Home | Current Version | Previous Version | Text Only | Print | Product List | Glossary On
Versions: 1 2 3 4 5 6 7 8 9 10 11 12 13 14 15 16 17 18 19 20
164
FTUS46 KHNX 080907 AAA
TAFVIS
TAF AMD
KVIS 080907Z 0809/0906 10004KT 6SM -SHRA BR OVC070
     FM081100 10007KT 5SM HZ VCSH BKN045 OVC070
     FM081700 13009KT P6SM FEW045 BKN070=

USA.gov is the U.S. government's official web portal to all federal, state and local government web resources and services.